• Join FlightAware (Why Join?)
  • Login
  • US Flag 
09:56PM EDT


 

Airport Tracker/Info


-or-


 

Live Flight TrackerFlight Track Log ✈ EJM53 ✈ 12-May-2013 ✈ KBED - KSJC

Flight Track Log - Related Links

Times and Time Zones

All times are in EDT time to prevent confusion due to time zone crossing. See the EJM53 flight status page for this flight to view local times or setup timezone preferences in your user account.

Time Position Orientation Groundspeed Altitude Reporting Facility
EDT Latitude Longitude Course Direction KTS MPH feet Rate Location/Type
05:47PM 42.4667 -71.3333 294° West 198 228 1,000  Level KA90
05:48PM 42.4833 -71.3833 294° West 193 222 2,000 1,260 Climbing KA90
05:49PM 42.5333 -71.3333 36° Northeast 275 316 3,500 1,740 Climbing KA90
05:50PM 42.5625 -71.1942 74° East 275 316 6,500 2,460 Climbing Boston Center
05:51PM 42.6394 -71.1925 North 221 254 9,800 2,880 Climbing Boston Center
05:52PM 42.7086 -71.2336 336° Northwest 252 290 12,300 2,400 Climbing Boston Center
05:53PM 42.7825 -71.3169 320° Northwest 321 369 14,600 2,160 Climbing Boston Center
05:54PM 42.7958 -71.4186 280° West 301 346 16,700 2,460 Climbing Boston Center
05:55PM 42.8117 -71.5486 279° West 308 354 19,600 2,520 Climbing Boston Center
05:56PM 42.8186 -71.6533 275° West 313 360 21,800 2,160 Climbing Boston Center
05:57PM 42.8297 -71.7692 277° West 313 360 24,000 1,920 Climbing Boston Center
05:58PM 42.8408 -71.8850 277° West 313 360 25,700 1,500 Climbing Boston Center
05:59PM 42.8519 -72.0069 277° West 313 360 27,100 1,440 Climbing Boston Center
06:00PM 42.8628 -72.1286 277° West 318 366 28,600 1,440 Climbing Boston Center
06:01PM 42.8756 -72.2503 278° West 324 373 30,000 1,200 Climbing Boston Center
06:02PM 42.8922 -72.3892 279° West 335 386 31,100 900 Climbing Boston Center
06:03PM 42.9028 -72.5167 276° West 335 386 31,900 600 Climbing Boston Center
06:04PM 42.9131 -72.6214 278° West 342 394 32,400 540 Climbing Boston Center
06:05PM 42.9189 -72.7775 273° West 348 400 33,000 600 Climbing Boston Center
06:06PM 42.9308 -72.9164 277° West 355 409 33,600 480 Climbing Boston Center
06:07PM 42.9428 -73.0414 277° West 370 426 34,000 480 Climbing Boston Center
06:08PM 42.9586 -73.2003 278° West 375 432 34,600 420 Climbing Boston Center
06:09PM 42.9681 -73.3253 276° West 382 440 34,900 360 Climbing Boston Center
06:10PM 42.9750 -73.4844 273° West 387 445 35,400 300 Climbing Boston Center
06:11PM 42.9842 -73.6008 276° West 387 445 35,600 240 Climbing Boston Center
06:12PM 42.9992 -73.7603 277° West 387 445 35,900 180 Climbing Boston Center
06:13PM 43.0100 -73.9081 276° West 387 445 36,000  Climbing Boston Center
06:14PM 43.0206 -74.0561 276° West 392 451 36,000  Level Boston Center
06:15PM 43.0328 -74.2125 276° West 398 458 36,000  Level Boston Center
06:16PM 43.0447 -74.3692 276° West 415 478 36,000  Level Boston Center
06:18PM 43.0661 -74.6881 275° West 427 491 36,000 -60 Level Boston Center
06:19PM 43.0772 -74.8478 275° West 427 491 35,900  Descending Boston Center
06:20PM 43.0886 -75.0047 276° West 427 491 36,000  Climbing Boston Center
06:21PM 43.0972 -75.1669 274° West 427 491 36,000  Level Boston Center
06:22PM 43.1100 -75.3269 276° West 427 491 36,000  Level Boston Center
06:23PM 43.1206 -75.4839 275° West 427 491 36,000  Level Boston Center
06:24PM 43.1286 -75.6408 274° West 421 484 36,000  Level Boston Center
06:26PM 43.1419 -75.8322 276° West 421 484 36,000  Level Boston Center
06:27PM 43.1494 -75.9922 274° West 427 491 36,000  Level Boston Center
06:28PM 43.1592 -76.1492 275° West 422 486 36,000  Level Boston Center
06:29PM 43.1333 -76.4167 263° West 410 472 36,000  Level Toronto Center
06:30PM 43.1381 -76.4886 275° West 400 460 36,000  Level Cleveland Center
06:31PM 43.1225 -76.6433 262° West 407 468 36,000  Level Cleveland Center
06:32PM 43.1092 -76.8008 263° West 412 474 36,000  Level Cleveland Center
06:33PM 43.1014 -76.9547 266° West 412 474 36,000  Level Cleveland Center
06:34PM 43.0958 -77.1114 267° West 407 468 36,000  Level Cleveland Center
06:35PM 43.0922 -77.2681 268° West 407 468 36,000  Level Cleveland Center
06:36PM 43.0858 -77.4106 267° West 412 474 36,000  Level Cleveland Center
06:37PM 43.0794 -77.5672 267° West 412 474 36,000  Level Cleveland Center
06:38PM 43.0753 -77.7239 268° West 417 480 36,000  Level Cleveland Center
06:39PM 43.0686 -77.8806 267° West 417 480 36,000  Level Cleveland Center
06:40PM 43.0636 -78.0369 268° West 424 488 36,000  Level Cleveland Center
06:41PM 43.0567 -78.1992 267° West 424 488 36,000  Level Cleveland Center
06:42PM 43.0494 -78.3586 267° West 424 488 36,000  Level Cleveland Center
06:43PM 43.0419 -78.5125 266° West 424 488 36,000  Level Cleveland Center
06:44PM 43.0364 -78.6689 267° West 424 488 36,000  Level Cleveland Center
06:45PM 43.0283 -78.8281 266° West 424 488 36,000  Level Cleveland Center
06:45PM 43.0167 -78.9333 261° West 420 483 36,000  Level Toronto Center
06:46PM 43.0000 -79.0833 261° West 420 483 36,000  Level Toronto Center
06:47PM 43.0000 -79.2500 270° West 420 483 36,000  Level Toronto Center
06:48PM 42.9833 -79.4000 261° West 420 483 36,000  Level Toronto Center
06:49PM 42.9833 -79.5667 270° West 420 483 36,000  Level Toronto Center
06:50PM 42.9667 -79.7167 261° West 420 483 36,000  Level Toronto Center
06:51PM 42.9667 -79.8833 270° West 420 483 36,000  Level Toronto Center
06:52PM 42.9500 -80.0500 262° West 420 483 36,000  Level Toronto Center
06:53PM 42.9500 -80.2000 270° West 420 483 36,000  Level Toronto Center
06:54PM 42.9333 -80.3667 262° West 420 483 36,000  Level Toronto Center
06:55PM 42.9333 -80.5167 270° West 420 483 36,000  Level Toronto Center
06:56PM 42.9167 -80.6500 260° West 420 483 36,000  Level Toronto Center
06:57PM 42.9000 -80.8333 263° West 420 483 36,000  Level Toronto Center
06:58PM 42.8833 -80.9833 261° West 420 483 36,000  Level Toronto Center
06:59PM 42.8667 -81.1500 262° West 420 483 36,000  Level Toronto Center
07:00PM 42.8667 -81.3167 270° West 420 483 36,000  Level Toronto Center
07:01PM 42.8500 -81.4833 262° West 420 483 36,000  Level Toronto Center
07:02PM 42.8669 -81.5181 304° West 422 486 36,000  Level Cleveland Center
07:03PM 42.8553 -81.6764 264° West 422 486 36,000  Level Cleveland Center
07:04PM 42.8408 -81.8489 264° West 422 486 36,000  Level Cleveland Center
07:05PM 42.8286 -82.0072 264° West 427 491 36,000  Level Cleveland Center
07:06PM 42.8183 -82.1656 265° West 427 491 36,000  Level Cleveland Center
07:07PM 42.8033 -82.3264 263° West 427 491 36,000  Level Cleveland Center
07:08PM 42.7925 -82.4903 265° West 427 491 36,000  Level Cleveland Center
07:09PM 42.7792 -82.6539 264° West 432 497 36,000  Level Cleveland Center
07:10PM 42.7658 -82.8117 263° West 432 497 36,000  Level Cleveland Center
07:11PM 42.7522 -82.9753 264° West 432 497 36,000  Level Cleveland Center
07:12PM 42.7406 -83.1331 264° West 432 497 36,000  Level Cleveland Center
07:13PM 42.7267 -83.2797 263° West 432 497 36,000  Level Cleveland Center
07:14PM 42.7125 -83.4372 263° West 432 497 36,000  Level Cleveland Center
07:15PM 42.6958 -83.5975 262° West 427 491 36,000  Level Cleveland Center
07:16PM 42.6853 -83.7553 265° West 427 491 36,000  Level Cleveland Center
07:17PM 42.6706 -83.9156 263° West 427 491 36,000  Level Cleveland Center
07:18PM 42.6533 -84.0700 261° West 427 491 36,000  Level Cleveland Center
07:19PM 42.6167 -84.3500 260° West 430 495 36,000  Level Toronto Center
07:20PM 42.6239 -84.4050 280° West 431 496 36,000  Level Chicago Center
07:21PM 42.6083 -84.5619 262° West 429 494 36,000  Level Chicago Center
07:22PM 42.5928 -84.7206 262° West 425 489 36,000  Level Chicago Center
07:23PM 42.5767 -84.8803 262° West 422 486 36,000  Level Chicago Center
07:24PM 42.5603 -85.0367 262° West 425 489 36,000  Level Chicago Center
07:25PM 42.5447 -85.2253 264° West 423 487 36,000  Level Chicago Center
07:26PM 42.5411 -85.3847 268° West 423 487 36,000  Level Chicago Center
07:27PM 42.5358 -85.5442 267° West 422 486 36,000  Level Chicago Center
07:28PM 42.5300 -85.7019 267° West 419 482 36,000  Level Chicago Center
07:29PM 42.5244 -85.8619 267° West 423 487 36,000  Level Chicago Center
07:30PM 42.5178 -86.0228 267° West 427 491 36,000  Level Chicago Center
07:31PM 42.5122 -86.1822 267° West 424 488 36,000  Level Chicago Center
07:32PM 42.5044 -86.3764 267° West 429 494 36,000  Level Chicago Center
07:33PM 42.4972 -86.5372 267° West 428 493 36,000  Level Chicago Center
07:34PM 42.4919 -86.6772 267° West 424 488 36,000  Level Chicago Center
07:35PM 42.4842 -86.8700 267° West 429 494 36,000  Level Chicago Center
07:36PM 42.4769 -87.0306 267° West 432 497 36,000  Level Chicago Center
07:37PM 42.4681 -87.1897 266° West 432 497 36,000  Level Chicago Center
07:38PM 42.4600 -87.3506 266° West 433 498 36,000  Level Chicago Center
07:39PM 42.4528 -87.5083 267° West 427 491 36,000  Level Chicago Center
07:40PM 42.4422 -87.6972 266° West 423 487 36,000  Level Chicago Center
07:41PM 42.4344 -87.8383 266° West 423 487 36,000  Level Chicago Center
07:42PM 42.4242 -88.0247 266° West 424 488 36,000  Level Chicago Center
07:43PM 42.4150 -88.1864 266° West 427 491 36,000  Level Chicago Center
07:44PM 42.4061 -88.3514 266° West 432 497 36,000  Level Chicago Center
07:46PM 42.3967 -88.5164 266° West 437 503 36,000  Level Chicago Center
07:47PM 42.3850 -88.6844 265° West 442 509 36,000  Level Chicago Center
07:48PM 42.3758 -88.8492 266° West 435 501 36,000  Level Chicago Center
07:49PM 42.3644 -89.0411 265° West 436 502 36,000  Level Chicago Center
07:50PM 42.3531 -89.2061 265° West 437 503 36,000  Level Chicago Center
07:51PM 42.3417 -89.3697 265° West 434 499 36,000  Level Chicago Center
07:52PM 42.3314 -89.5344 265° West 438 504 36,000  Level Chicago Center
07:53PM 42.3203 -89.7014 265° West 444 511 36,000  Level Chicago Center
07:54PM 42.3083 -89.8664 264° West 441 507 36,000  Level Chicago Center
07:55PM 42.2961 -90.0389 265° West 448 516 36,000  Level Chicago Center
07:56PM 42.2836 -90.2056 264° West 449 517 36,000  Level Chicago Center
07:57PM 42.2689 -90.4061 264° West 450 518 36,000  Level Chicago Center
07:58PM 42.2553 -90.5733 264° West 452 520 36,000  Level Chicago Center
07:59PM 42.2428 -90.7397 264° West 449 517 36,000  Level Chicago Center
08:00PM 42.2292 -90.9067 264° West 450 518 36,000  Level Chicago Center
08:01PM 42.2144 -91.0767 263° West 458 527 36,000  Level Chicago Center
08:02PM 42.1975 -91.2806 264° West 458 527 36,000  Level Chicago Center
08:03PM 42.1828 -91.4508 263° West 459 528 36,000  Level Chicago Center
08:04PM 42.1681 -91.6228 263° West 461 531 36,000  Level Chicago Center
08:05PM 42.1528 -91.7956 263° West 464 534 36,000  Level Chicago Center
08:06PM 42.1378 -91.9672 263° West 463 533 36,000  Level Chicago Center
08:07PM 42.1222 -92.1408 263° West 466 536 36,000  Level Chicago Center
08:08PM 42.1031 -92.3461 263° West 465 535 36,000  Level Chicago Center
08:09PM 42.0867 -92.5169 263° West 464 534 36,000  Level Chicago Center
08:10PM 42.0731 -92.6550 262° West 463 533 36,000  Level Minneapolis Center
08:11PM 42.0564 -92.8242 262° West 461 531 36,000  Level Minneapolis Center
08:12PM 42.0406 -92.9928 263° West 459 528 36,000  Level Minneapolis Center
08:13PM 42.0203 -93.1953 262° West 457 526 36,000  Level Minneapolis Center
08:14PM 42.0022 -93.3669 262° West 464 534 36,000  Level Minneapolis Center
08:15PM 41.9850 -93.5419 263° West 473 544 36,000  Level Minneapolis Center
08:16PM 41.9642 -93.7139 261° West 471 542 36,000  Level Minneapolis Center
08:17PM 41.9464 -93.8833 262° West 472 543 36,000  Level Minneapolis Center
08:19PM 41.9233 -94.1286 263° West 473 544 36,000  Level Minneapolis Center
08:20PM 41.9006 -94.3347 262° West 467 537 36,000  Level Minneapolis Center
08:21PM 41.8858 -94.5078 264° West 467 537 36,000  Level Minneapolis Center
08:22PM 41.8711 -94.6811 264° West 469 540 36,000  Level Minneapolis Center
08:23PM 41.8547 -94.8556 263° West 471 542 36,000  Level Minneapolis Center
08:24PM 41.8372 -95.0286 262° West 471 542 36,000  Level Minneapolis Center
08:25PM 41.8214 -95.2003 263° West 467 537 36,000  Level Minneapolis Center
08:26PM 41.8014 -95.4086 263° West 471 542 36,000  Level Minneapolis Center
08:27PM 41.7844 -95.5789 262° West 466 536 36,000  Level Minneapolis Center
08:28PM 41.7669 -95.7497 262° West 466 536 36,000  Level Minneapolis Center
08:29PM 41.7497 -95.9217 262° West 470 541 36,000  Level Minneapolis Center
08:30PM 41.7322 -96.0931 262° West 470 541 36,000  Level Minneapolis Center
08:31PM 41.7183 -96.2300 262° West 470 541 36,000  Level Minneapolis Center
08:32PM 41.6925 -96.4686 262° West 467 537 36,000  Level Minneapolis Center
08:33PM 41.6739 -96.6386 262° West 465 535 36,000  Level Minneapolis Center
08:34PM 41.6556 -96.8092 262° West 466 536 36,000  Level Minneapolis Center
08:35PM 41.6367 -96.9789 262° West 464 534 36,000  Level Minneapolis Center
08:36PM 41.6175 -97.1467 261° West 460 529 36,000  Level Minneapolis Center
08:37PM 41.6036 -97.2822 262° West 460 529 36,000  Level Minneapolis Center
08:38PM 41.5783 -97.4842 261° West 461 531 36,000  Level Minneapolis Center
08:40PM 41.5592 -97.6519 261° West 459 528 36,000  Level Minneapolis Center
08:41PM 41.5314 -97.8881 261° West 461 531 36,000  Level Minneapolis Center
08:42PM 41.5106 -98.0558 261° West 460 529 36,000  Level Minneapolis Center
08:43PM 41.4914 -98.2147 261° West 460 529 36,000  Level Minneapolis Center
08:44PM 41.4714 -98.3808 261° West 457 526 36,000  Level Minneapolis Center
08:45PM 41.4478 -98.5600 260° West 462 532 36,000  Level Minneapolis Center
08:46PM 41.4267 -98.7289 261° West 463 533 36,000  Level Minneapolis Center
08:47PM 41.4039 -98.8969 260° West 462 532 36,000  Level Minneapolis Center
08:48PM 41.3781 -99.0997 260° West 463 533 36,000  Level Minneapolis Center
08:49PM 41.3556 -99.2847 261° West 465 535 36,000  Level Denver Center
08:50PM 41.3314 -99.4639 260° West 466 536 36,000  Level Denver Center
08:51PM 41.3047 -99.6519 259° West 465 535 36,000  Level Denver Center
08:52PM 41.2836 -99.8144 260° West 467 537 36,000  Level Denver Center
08:53PM 41.2606 -99.9775 259° West 469 540 36,000  Level Denver Center
08:54PM 41.2347 -100.1653 260° West 466 536 36,000  Level Denver Center
08:55PM 41.2150 -100.3006 259° West 468 539 36,000  Level Denver Center
08:56PM 41.1850 -100.5158 260° West 468 539 36,000  Level Denver Center
08:57PM 41.1614 -100.6772 259° West 469 540 36,000  Level Denver Center
08:58PM 41.1342 -100.8636 259° West 466 536 36,000  Level Denver Center
08:59PM 41.1100 -101.0231 259° West 467 537 36,000  Level Denver Center
09:00PM 41.0819 -101.2097 259° West 467 537 36,000  Level Denver Center
09:01PM 41.0575 -101.3700 259° West 466 536 36,000  Level Denver Center
09:02PM 41.0300 -101.5558 259° West 463 533 36,000  Level Denver Center
09:03PM 41.0086 -101.6892 258° West 465 535 36,000  Level Denver Center
09:04PM 40.9839 -101.8492 258° West 465 535 36,000  Level Denver Center
09:05PM 40.9506 -102.0625 258° West 466 536 36,000  Level Denver Center
09:06PM 40.9233 -102.2233 257° West 469 540 36,000  Level Denver Center
09:07PM 40.8939 -102.4125 258° West 471 542 36,000  Level Denver Center
09:08PM 40.8681 -102.5739 258° West 470 541 36,000  Level Denver Center
09:09PM 40.8361 -102.7606 257° West 467 537 36,000  Level Denver Center
09:11PM 40.8108 -102.9214 258° West 468 539 36,000  Level Denver Center
09:12PM 40.7794 -103.0956 257° West 475 547 36,000  Level Denver Center
09:13PM 40.7478 -103.2867 258° West 478 550 36,000  Level Denver Center
09:14PM 40.7203 -103.4494 257° West 477 549 36,000  Level Denver Center
09:15PM 40.6922 -103.6131 257° West 477 549 36,000  Level Denver Center
09:16PM 40.6586 -103.8033 257° West 477 549 36,000  Level Denver Center
09:17PM 40.6292 -103.9678 257° West 480 552 36,000  Level Denver Center
09:18PM 40.5942 -104.1544 256° West 485 558 36,000  Level Denver Center
09:19PM 40.5653 -104.3267 258° West 484 557 36,000  Level Denver Center
09:20PM 40.5319 -104.5097 257° West 480 552 36,000  Level Denver Center
09:21PM 40.5011 -104.6833 257° West 488 562 36,000  Level Denver Center
09:22PM 40.4678 -104.8672 257° West 484 557 36,000  Level Denver Center
09:23PM 40.4353 -105.0400 256° West 489 563 36,000  Level Denver Center
09:24PM 40.4047 -105.2075 257° West 477 549 36,000  Level Denver Center
09:25PM 40.3703 -105.3906 256° West 483 556 36,000  Level Denver Center
09:26PM 40.3350 -105.5572 255° West 470 541 36,000  Level Denver Center
09:27PM 40.3028 -105.7275 256° West 479 551 36,000  Level Denver Center
09:28PM 40.2697 -105.8989 256° West 484 557 36,000  Level Denver Center
09:29PM 40.2361 -106.0675 255° West 482 555 36,000  Level Denver Center
09:30PM 40.2031 -106.2378 256° West 482 555 36,000  Level Denver Center
09:31PM 40.1694 -106.4072 255° West 483 556 36,000  Level Denver Center
09:32PM 40.1314 -106.6019 256° West 481 554 36,000  Level Denver Center
09:33PM 40.0978 -106.7633 255° West 481 554 36,000  Level Denver Center
09:34PM 40.0597 -106.9536 255° West 484 557 36,000  Level Denver Center
09:35PM 40.0267 -107.1150 255° West 483 556 36,000  Level Denver Center
09:36PM 39.9883 -107.3042 255° West 483 556 36,000  Level Denver Center
09:37PM 39.9531 -107.4653 254° West 482 555 36,000  Level Denver Center
09:38PM 39.9142 -107.6544 255° West 484 557 36,000  Level Denver Center
09:39PM 39.8797 -107.8144 254° West 482 555 36,000  Level Denver Center
09:40PM 39.8383 -108.0036 254° West 489 563 36,000  Level Denver Center
09:41PM 39.8025 -108.1636 254° West 490 564 36,000  Level Denver Center
09:42PM 39.7681 -108.3228 254° West 481 554 36,000  Level Denver Center
09:43PM 39.7278 -108.5078 254° West 470 541 36,000  Level Denver Center
09:44PM 39.6933 -108.6664 254° West 479 551 36,000  Level Denver Center
09:45PM 39.6503 -108.8556 254° West 494 568 36,000  Level Denver Center
09:47PM 39.6100 -109.0322 254° West 484 557 36,000  Level Denver Center
09:48PM 39.5742 -109.1906 254° West 481 554 36,000  Level Denver Center
09:49PM 39.5267 -109.4022 254° West 479 551 36,000  Level Denver Center
09:50PM 39.4897 -109.5611 253° West 482 555 36,000  Level Salt Lake Center
09:51PM 39.4536 -109.7200 254° West 482 555 36,000  Level Salt Lake Center
09:52PM 39.4092 -109.9056 253° West 484 557 36,000  Level Denver Center
09:53PM 39.3714 -110.0664 253° West 487 560 36,000  Level Salt Lake Center
09:54PM 39.3275 -110.2528 253° West 487 560 36,000  Level Salt Lake Center
09:55PM 39.2889 -110.4108 253° West 483 556 36,000  Level Salt Lake Center
09:56PM 39.2444 -110.5956 253° West 483 556 36,000  Level Denver Center
09:57PM 39.2058 -110.7525 252° West 482 555 36,000  Level Salt Lake Center
09:58PM 39.1681 -110.9125 253° West 486 559 36,000  Level Salt Lake Center
09:59PM 39.1219 -111.0975 252° West 487 560 36,000  Level Salt Lake Center
10:00PM 39.0825 -111.2558 252° West 487 560 36,000  Level Salt Lake Center
10:01PM 39.0453 -111.4108 253° West 488 562 36,000  Level Salt Lake Center
10:02PM 39.0042 -111.5764 252° West 489 563 36,000  Level Salt Lake Center
10:03PM 38.9539 -111.7753 252° West 489 563 36,000  Level Salt Lake Center
10:04PM 38.9117 -111.9394 252° West 488 562 36,000  Level Salt Lake Center
10:05PM 38.8811 -112.1058 257° West 482 555 36,000  Level Salt Lake Center
10:06PM 38.8594 -112.2753 261° West 482 555 36,000  Level Salt Lake Center
10:07PM 38.8375 -112.4444 261° West 482 555 36,000  Level Salt Lake Center
10:08PM 38.8153 -112.6142 261° West 485 558 36,000  Level Salt Lake Center
10:09PM 38.7922 -112.7814 260° West 481 554 36,000  Level Salt Lake Center
10:10PM 38.7644 -112.9822 260° West 480 552 36,000  Level Salt Lake Center
10:11PM 38.7422 -113.1511 260° West 481 554 36,000  Level Salt Lake Center
10:12PM 38.7178 -113.3189 259° West 483 556 36,000  Level Salt Lake Center
10:13PM 38.6947 -113.4850 260° West 480 552 36,000  Level Salt Lake Center
10:14PM 38.6706 -113.6539 260° West 482 555 36,000  Level Salt Lake Center
10:15PM 38.6472 -113.8211 260° West 482 555 36,000  Level Salt Lake Center
10:16PM 38.6225 -113.9886 259° West 482 555 36,000  Level Salt Lake Center
10:17PM 38.5986 -114.1561 260° West 481 554 36,000  Level Salt Lake Center
10:18PM 38.5678 -114.3578 259° West 483 556 36,000  Level Salt Lake Center
10:19PM 38.5419 -114.5261 259° West 484 557 36,000  Level Salt Lake Center
10:20PM 38.5167 -114.6936 259° West 484 557 36,000  Level Salt Lake Center
10:21PM 38.4897 -114.8628 259° West 488 562 36,000  Level Salt Lake Center
10:23PM 38.4642 -115.0306 259° West 486 559 36,000  Level Salt Lake Center
10:24PM 38.4381 -115.1989 259° West 486 559 36,000  Level Salt Lake Center
10:25PM 38.4092 -115.3822 259° West 484 557 36,000  Level Salt Lake Center
10:26PM 38.3836 -115.5489 259° West 480 552 36,000  Level Salt Lake Center
10:27PM 38.3558 -115.7150 258° West 479 551 36,000  Level Salt Lake Center
10:28PM 38.3289 -115.8814 258° West 480 552 36,000  Level Salt Lake Center
10:29PM 38.3017 -116.0472 258° West 478 550 36,000  Level Salt Lake Center
10:30PM 38.2742 -116.2133 258° West 479 551 36,000  Level Salt Lake Center
10:31PM 38.2306 -116.3725 251° West 481 554 36,000  Level Salt Lake Center
10:32PM 38.1781 -116.5294 247° West 482 555 36,000  Level Salt Lake Center
10:33PM 38.1158 -116.7156 247° West 476 548 36,000  Level Salt Lake Center
10:34PM 38.0625 -116.8717 247° West 478 550 36,000  Level Salt Lake Center
10:35PM 38.0089 -117.0281 247° West 477 549 36,000  Level Salt Lake Center
10:36PM 37.9547 -117.1856 246° West 477 549 36,000  Level Salt Lake Center
10:37PM 37.9006 -117.3419 246° West 477 549 36,000  Level Salt Lake Center
10:38PM 37.8575 -117.4992 251° West 471 542 36,000  Level Salt Lake Center
10:39PM 37.8189 -117.6600 253° West 475 547 36,000  Level Salt Lake Center
10:40PM 37.7808 -117.8194 253° West 474 545 36,000  Level Salt Lake Center
10:41PM 37.7425 -117.9781 253° West 471 542 36,000  Level Salt Lake Center
10:42PM 37.7031 -118.1372 253° West 474 545 36,000  Level Salt Lake Center
10:43PM 37.6644 -118.2961 253° West 473 544 36,000  Level Salt Lake Center
10:44PM 37.6178 -118.4842 253° West 470 541 36,000  Level Oakland Center
10:45PM 37.5794 -118.6422 253° West 470 541 36,000  Level Oakland Center
10:46PM 37.5397 -118.7989 252° West 469 540 36,000 -120 Level Oakland Center
10:47PM 37.5028 -118.9528 253° West 473 544 35,800 -1,020 Descending Oakland Center
10:48PM 37.4561 -119.1481 253° West 497 572 34,000 -2,100 Descending Oakland Center
10:49PM 37.4156 -119.3083 252° West 487 560 31,600 -2,400 Descending Oakland Center
10:50PM 37.3753 -119.4586 251° West 463 533 29,200 -2,340 Descending Oakland Center
10:51PM 37.3356 -119.6094 252° West 462 532 26,900 -2,280 Descending Oakland Center
10:52PM 37.2958 -119.7586 252° West 453 521 24,600 -2,220 Descending Oakland Center
10:53PM 37.2708 -119.9200 259° West 435 501 22,500 -1,980 Descending Oakland Center
10:54PM 37.2531 -120.0767 262° West 447 514 20,600 -1,860 Descending Oakland Center
10:55PM 37.2367 -120.2278 262° West 435 501 18,700 -1,860 Descending Oakland Center
10:56PM 37.2206 -120.3758 262° West 428 493 16,900 -1,920 Descending Oakland Center
10:57PM 37.2000 -120.5167 260° West 473 544 15,000 -1,860 Descending Northern Cal TRACON
10:58PM 37.1667 -120.6667 254° West 420 483 13,300 -1,500 Descending Northern Cal TRACON
10:59PM 37.1333 -120.8167 254° West 401 461 11,900 -1,200 Descending Northern Cal TRACON
11:00PM 37.1167 -120.9333 260° West 370 426 10,900 -1,020 Descending Northern Cal TRACON
11:01PM 37.1069 -121.0489 264° West 355 409 9,900 -480 Descending Oakland Center
11:02PM 37.0931 -121.1664 262° West 344 396 10,000  Climbing Oakland Center
11:03PM 37.0783 -121.2925 262° West 332 382 9,900 -300 Descending Oakland Center
11:05PM 37.0661 -121.3989 262° West 315 362 9,400 -840 Descending Oakland Center
11:06PM 37.0564 -121.4953 263° West 289 333 8,300 -1,380 Descending Oakland Center
11:07PM 37.1011 -121.5833 303° West 273 314 6,700 -1,200 Descending Oakland Center
11:08PM 37.1364 -121.6606 300° West 260 299 5,900 -1,020 Descending Oakland Center
11:09PM 37.1750 -121.7372 302° West 247 284 4,700 -1,260 Descending Oakland Center
11:10PM 37.2208 -121.7800 323° Northwest 246 283 3,400 -1,140 Descending Oakland Center
11:11PM 37.2650 -121.8200 324° Northwest 219 252 2,400 -1,080 Descending Oakland Center
11:12PM 37.3053 -121.8678 317° Northwest 183 211 1,300 -900 Descending Oakland Center
11:13PM 37.3344 -121.8992 319° Northwest 157 181 600 9,180 Descending Oakland Center
11:14PM 37.3589 -121.9267 318° Northwest 131 151 20,000 19,080 Climbing Oakland Center
11:16PM 37.3627 -121.9291 North  Level Estimated